createdAt,value
2024-03-05T04:29:34.801Z,11.32
2024-03-05T04:32:42.062Z,11.00
2024-03-05T04:35:44.740Z,10.87
2024-03-05T04:38:47.353Z,13.27
2024-03-05T04:41:49.915Z,12.23
2024-03-05T04:44:54.384Z,11.32
2024-03-05T04:47:58.156Z,11.80
2024-03-05T04:51:01.535Z,10.37
2024-03-05T04:54:04.236Z,13.73
2024-03-05T04:57:07.969Z,12.93
2024-03-05T05:00:25.308Z,12.60
2024-03-05T05:03:28.231Z,10.93
2024-03-05T05:06:30.717Z,11.93
2024-03-05T05:09:33.243Z,11.00
2024-03-05T05:12:36.612Z,11.80
2024-03-05T05:15:39.197Z,12.40
2024-03-05T05:18:41.806Z,11.48
2024-03-05T05:21:48.278Z,10.57
2024-03-05T05:24:51.225Z,11.20
2024-03-05T05:27:53.900Z,10.85
2024-03-05T05:30:56.422Z,13.20
2024-03-05T05:33:59.302Z,10.77
2024-03-05T05:37:02.080Z,10.97
2024-03-05T05:40:05.321Z,13.35
2024-03-05T05:43:09.319Z,12.38
2024-03-05T05:46:23.415Z,11.60
2024-03-05T05:49:26.055Z,12.25
2024-03-05T05:52:28.608Z,11.07
2024-03-05T05:55:31.440Z,11.50
2024-03-05T05:58:37.437Z,12.55
2024-03-05T06:01:40.099Z,11.20
2024-03-05T06:04:43.074Z,12.02
2024-03-05T06:07:45.937Z,11.70
2024-03-05T06:10:48.496Z,11.38
2024-03-05T06:13:52.178Z,12.77
2024-03-05T06:16:54.774Z,13.07
2024-03-05T06:20:00.026Z,14.45
2024-03-05T06:23:02.786Z,13.43
2024-03-05T06:26:05.449Z,13.38
2024-03-05T06:29:10.310Z,12.85
2024-03-05T06:32:12.983Z,11.77
2024-03-05T06:35:16.788Z,11.63
2024-03-05T06:38:19.443Z,12.93
2024-03-05T06:41:26.344Z,12.38
2024-03-05T06:44:37.408Z,13.27
2024-03-05T06:47:41.139Z,13.75
2024-03-05T06:50:50.070Z,11.45
2024-03-05T06:54:20.114Z,12.77
2024-03-05T06:57:24.366Z,11.80
2024-03-05T07:00:28.155Z,12.90
2024-03-05T07:03:30.669Z,13.80
2024-03-05T07:06:33.631Z,13.25
2024-03-05T07:09:36.371Z,13.10
2024-03-05T07:12:38.877Z,13.27
2024-03-05T07:15:41.917Z,11.98
2024-03-05T07:18:45.372Z,12.00
2024-03-05T07:21:48.847Z,13.13
2024-03-05T07:24:53.472Z,12.30
2024-03-05T07:27:56.752Z,12.02
2024-03-05T07:31:00.773Z,11.90
2024-03-05T07:34:04.134Z,13.10
2024-03-05T07:37:09.562Z,13.18
2024-03-05T07:40:21.797Z,11.47
2024-03-05T07:43:25.017Z,12.10
2024-03-05T07:46:27.698Z,12.52
2024-03-05T07:49:34.675Z,12.77
2024-03-05T07:52:38.251Z,11.88
2024-03-05T07:55:46.362Z,12.03
2024-03-05T07:58:50.033Z,12.43
2024-03-05T08:01:53.410Z,13.55
2024-03-05T08:04:56.203Z,11.50
2024-03-05T08:08:00.299Z,13.27
2024-03-05T08:11:07.081Z,12.40
2024-03-05T08:14:18.663Z,13.10
2024-03-05T08:17:21.400Z,11.88
2024-03-05T08:20:28.908Z,12.55
2024-03-05T08:23:34.598Z,13.82
2024-03-05T08:26:37.510Z,12.97
2024-03-05T08:29:41.025Z,14.68
2024-03-05T08:32:44.995Z,14.23
2024-03-05T08:35:47.612Z,12.88
2024-03-05T08:38:50.232Z,13.90
2024-03-05T08:41:52.946Z,13.07
2024-03-05T08:45:02.115Z,18.42
2024-03-05T08:48:07.147Z,13.95
2024-03-05T08:51:09.727Z,12.73
2024-03-05T08:54:16.416Z,20.08
2024-03-05T08:57:25.003Z,13.23
2024-03-05T09:00:37.925Z,45.05
2024-03-05T09:03:45.803Z,28.00
2024-03-05T09:06:49.633Z,12.20
2024-03-05T09:09:59.137Z,16.40
2024-03-05T09:13:01.686Z,13.73
2024-03-05T09:16:04.701Z,16.00
2024-03-05T09:19:07.764Z,13.70
2024-03-05T09:22:10.729Z,12.82
2024-03-05T09:25:15.315Z,13.48
2024-03-05T09:28:21.504Z,14.00
2024-03-05T09:31:26.329Z,12.98
2024-03-05T09:34:29.198Z,13.52
2024-03-05T09:37:32.385Z,14.13
2024-03-05T09:40:36.484Z,13.07
2024-03-05T09:43:43.279Z,13.13
2024-03-05T09:46:47.522Z,13.85
2024-03-05T09:49:54.149Z,13.38
2024-03-05T09:53:00.774Z,14.18
2024-03-05T09:56:18.181Z,14.05
2024-03-05T09:59:37.737Z,13.53
2024-03-05T10:02:52.742Z,13.40
2024-03-05T10:05:56.491Z,14.45
2024-03-05T10:08:59.641Z,14.10
2024-03-05T10:12:05.938Z,14.98
2024-03-05T10:15:12.648Z,13.00
2024-03-05T10:18:30.761Z,15.38
2024-03-05T10:21:35.036Z,13.68
2024-03-05T10:24:38.462Z,15.23
2024-03-05T10:27:46.358Z,14.43
2024-03-05T10:30:59.831Z,13.27
2024-03-05T10:34:05.237Z,13.20
2024-03-05T10:37:08.702Z,13.07
2024-03-05T10:40:16.497Z,12.63
2024-03-05T10:43:23.424Z,13.35
2024-03-05T10:46:26.931Z,12.73
2024-03-05T10:49:37.247Z,13.52
2024-03-05T10:52:42.116Z,13.85
2024-03-05T10:56:01.468Z,14.13
2024-03-05T10:59:16.914Z,11.95
2024-03-05T11:02:28.903Z,13.87
2024-03-05T11:05:41.424Z,12.98
2024-03-05T11:08:45.106Z,13.90
2024-03-05T11:11:53.064Z,12.88
2024-03-05T11:14:56.302Z,13.00
2024-03-05T11:17:59.334Z,13.87
2024-03-05T11:21:10.322Z,12.82
2024-03-05T11:24:13.295Z,13.73
2024-03-05T11:27:25.686Z,12.93
2024-03-05T11:30:32.337Z,12.52
2024-03-05T11:33:35.882Z,13.50
2024-03-05T11:36:38.388Z,13.40
2024-03-05T11:39:44.451Z,12.68
2024-03-05T11:42:50.562Z,12.00
2024-03-05T11:45:53.641Z,13.07
2024-03-05T11:49:02.480Z,12.87
2024-03-05T11:52:05.777Z,12.10
2024-03-05T11:55:10.817Z,11.05
2024-03-05T11:58:15.876Z,11.27
2024-03-05T12:01:18.487Z,12.20
2024-03-05T12:04:21.278Z,13.30
2024-03-05T12:07:23.990Z,11.82
2024-03-05T12:10:34.570Z,11.90
2024-03-05T12:13:37.831Z,11.30
2024-03-05T12:16:40.454Z,11.85
2024-03-05T12:19:43.393Z,11.33
2024-03-05T12:22:56.906Z,10.70
2024-03-05T12:26:00.191Z,11.32
2024-03-05T12:29:03.703Z,12.85
2024-03-05T12:32:09.049Z,12.45
2024-03-05T12:35:15.558Z,12.47
2024-03-05T12:38:18.273Z,12.00
2024-03-05T12:41:23.921Z,12.30
2024-03-05T12:44:26.801Z,10.82
2024-03-05T12:47:32.339Z,12.20
2024-03-05T12:50:38.069Z,12.93
2024-03-05T12:53:42.231Z,11.57
2024-03-05T12:56:46.425Z,13.23
2024-03-05T12:59:50.661Z,13.63
2024-03-05T13:02:53.942Z,11.77
2024-03-05T13:06:00.512Z,12.17
2024-03-05T13:09:06.957Z,11.63
2024-03-05T13:12:09.710Z,12.00
2024-03-05T13:15:12.327Z,12.70
2024-03-05T13:18:15.180Z,11.98
2024-03-05T13:21:17.830Z,13.73
2024-03-05T13:24:20.774Z,12.70
2024-03-05T13:27:25.128Z,13.10
2024-03-05T13:30:28.230Z,12.57
2024-03-05T13:33:38.907Z,13.85
2024-03-05T13:36:47.987Z,12.23
2024-03-05T13:39:50.559Z,12.82
2024-03-05T13:42:53.352Z,12.25
2024-03-05T13:45:58.570Z,12.45
2024-03-05T13:49:01.165Z,13.05
2024-03-05T13:52:04.177Z,13.47
2024-03-05T13:55:08.191Z,13.50
2024-03-05T13:58:15.578Z,12.68
2024-03-05T14:01:18.594Z,12.30
2024-03-05T14:04:23.767Z,11.98
2024-03-05T14:07:26.451Z,14.07
2024-03-05T14:10:30.672Z,13.98
2024-03-05T14:13:34.140Z,12.68
2024-03-05T14:16:39.737Z,12.40
2024-03-05T14:19:42.649Z,13.95
2024-03-05T14:22:47.382Z,12.53
2024-03-05T14:25:50.437Z,12.13
2024-03-05T14:28:53.211Z,12.13
2024-03-05T14:31:56.338Z,11.73
2024-03-05T14:35:00.077Z,11.90
2024-03-05T14:38:03.001Z,10.53
2024-03-05T14:41:06.101Z,10.75
2024-03-05T14:44:12.203Z,10.05
2024-03-05T14:47:15.563Z,10.35
2024-03-05T14:50:18.832Z,9.50
2024-03-05T14:53:21.703Z,9.23
2024-03-05T14:56:28.183Z,9.30
2024-03-05T14:59:32.354Z,9.55
2024-03-05T15:02:35.246Z,7.70
2024-03-05T15:05:38.210Z,6.38
2024-03-05T15:08:40.749Z,6.40
2024-03-05T15:11:43.496Z,7.20
2024-03-05T15:14:47.902Z,7.45
2024-03-05T15:17:50.889Z,7.88
2024-03-05T15:20:53.787Z,6.97
2024-03-05T15:23:56.805Z,7.50
2024-03-05T15:27:05.285Z,7.47
2024-03-05T15:30:16.288Z,7.05
2024-03-05T15:33:19.215Z,8.07
2024-03-05T15:36:22.199Z,9.30
2024-03-05T15:39:27.775Z,8.43
2024-03-05T15:42:30.656Z,8.77
2024-03-05T15:45:33.655Z,8.80
2024-03-05T15:48:36.471Z,9.63
2024-03-05T15:51:39.280Z,7.82
2024-03-05T15:54:41.987Z,7.77
2024-03-05T15:58:04.345Z,7.57
2024-03-05T16:01:07.058Z,8.18
2024-03-05T16:04:30.100Z,7.78
2024-03-05T16:07:33.488Z,7.80
2024-03-05T16:10:44.815Z,7.87
2024-03-05T16:13:50.733Z,8.73
2024-03-05T16:16:53.374Z,8.15
2024-03-05T16:19:56.056Z,9.18
2024-03-05T16:22:59.976Z,8.15
2024-03-05T16:26:05.993Z,9.33
2024-03-05T16:29:08.878Z,7.78
2024-03-05T16:32:14.308Z,8.32
2024-03-05T16:35:19.876Z,8.55
2024-03-05T16:38:22.479Z,9.77
2024-03-05T16:41:25.347Z,9.43
2024-03-05T16:44:27.960Z,9.88
2024-03-05T16:47:32.120Z,9.13
2024-03-05T16:50:35.373Z,9.88
2024-03-05T16:53:38.984Z,9.70
2024-03-05T16:56:43.547Z,9.67
2024-03-05T16:59:46.306Z,9.50
2024-03-05T17:03:01.572Z,10.27
2024-03-05T17:06:09.073Z,11.35
2024-03-05T17:09:15.851Z,9.95
2024-03-05T17:12:19.572Z,9.63
2024-03-05T17:15:22.334Z,9.13
2024-03-05T17:18:25.598Z,9.07
2024-03-05T17:21:28.472Z,9.27
2024-03-05T17:24:31.117Z,8.68
2024-03-05T17:27:34.756Z,8.93
2024-03-05T17:30:39.666Z,8.30
2024-03-05T17:33:42.399Z,8.65
2024-03-05T17:36:45.025Z,8.88
2024-03-05T17:39:47.770Z,10.57
2024-03-05T17:42:50.371Z,12.30
2024-03-05T17:45:53.005Z,13.52
2024-03-05T17:48:55.557Z,14.32
2024-03-05T17:51:58.101Z,12.07
2024-03-05T17:55:08.913Z,11.88
2024-03-05T17:58:11.692Z,12.30
2024-03-05T18:01:15.603Z,12.43
2024-03-05T18:04:19.009Z,13.45
2024-03-05T18:07:21.465Z,14.00
2024-03-05T18:10:25.123Z,14.60
2024-03-05T18:13:27.927Z,14.53
2024-03-05T18:16:30.866Z,15.95
